Terminal Aerodrome Forecast
Issued by NWS Topeka, KS

Home | Current Version | Previous Version | Text Only | Print | Product List | Glossary Off
Versions: 1 2 3 4 5 6 7 8 9 10 11 12 13 14 15 16 17 18

788
FTUS43 KTOP 142126 AAB
TAFTOP
TAF AMD
KTOP 142126Z 1421/1518 17012KT P6SM -TSRA FEW040 SCT060CB BKN090
     FM142200 22012KT P6SM VCTS OVC040CB
      TEMPO 1422/1501 1SM TSRA BKN025CB
     FM150200 32017G25KT P6SM VCSH BKN025
     FM150600 32014G22KT P6SM SCT030 SCT250
     FM151100 32010KT P6SM FEW250=

USA.gov is the U.S. government's official web portal to all federal, state and local government web resources and services.